Terminal Aerodrome Forecast
Issued by NWS Tampa Bay Area, FL

Home | Current Version | Previous Version | Text Only | Print | Product List | Glossary On
Versions: 1 2 3 4 5 6 7 8 9 10 11 12
000
FTUS42 KTBW 041125
TAFFMY
TAF
KFMY 041125Z 0412/0512 07006KT P6SM BKN250
     FM041400 08012KT P6SM FEW035 SCT250
     FM041600 09014G20KT P6SM SCT050 SCT250
     FM050300 08010KT P6SM BKN250=

USA.gov is the U.S. government's official web portal to all federal, state and local government web resources and services.